Aplicació Alertes

Dades de l'estació automàtica Barcelona - Zona Universitària

?
?
Resum diari 22:30 TU
Dades diàries de l'estació meteorològica
Temperatura mitjana 8.7 °C
Temperatura màxima 13.4 °C 11:09 TU
Temperatura mínima 4.3 °C 5:06 TU
Humitat relativa mitjana 37%
Precipitació acumulada 0.0 mm
Ratxa màxima del vent (10 m) 35.6 km/h - 308º 9:34 TU
Pressió atmosfèrica mitjana 1025.9 hPa
Irradiació solar global 8.7 MJ/m2

El tram horari està expressat en Temps Universal (TU). Cal sumar una hora en horari d'hivern i dues en horari d'estiu per passar a l'hora oficial.

Barcelona - Zona Universitària

Metadades estació meteorol´gica
Municipi Barcelona
Comarca Barcelonès
Altitud 79 m
Data alta 17.04.2008
Estat actual Operativa
Dades de període
Període
TU
TM
°C
TX
°C
TN
°C
HRM
%
PPT
mm
VVM (10 m)
km/h
DVM (10 m)
graus
VVX (10 m)
km/h
PM
hPa
RS
W/m2
00:00 - 00:30 7.2 7.7 6.8 35 0.0 11.5 305 18.7 1022.7 0
00:30 - 01:00 8.0 8.5 7.5 32 0.0 11.5 315 23.0 1022.7 0
01:00 - 01:30 7.8 7.9 7.6 34 0.0 10.1 316 19.4 1023.1 0
01:30 - 02:00 7.6 7.8 7.5 34 0.0 9.7 314 20.2 1023.2 0
02:00 - 02:30 7.7 8.0 7.6 34 0.0 9.7 306 18.4 1023.2 0
02:30 - 03:00 7.7 7.8 7.6 36 0.0 13.0 309 22.0 1023.2 0
03:00 - 03:30 7.4 7.6 7.3 40 0.0 11.2 307 22.0 1023.2 0
03:30 - 04:00 7.1 7.2 6.7 44 0.0 15.5 305 29.2 1023.3 0
04:00 - 04:30 6.5 6.7 6.2 48 0.0 11.5 303 26.3 1023.5 0
04:30 - 05:00 5.6 6.2 4.9 51 0.0 6.1 293 19.4 1024.2 0
05:00 - 05:30 4.9 5.8 4.3 52 0.0 9.0 266 19.4 1024.8 0
05:30 - 06:00 5.5 5.6 5.1 49 0.0 13.0 284 21.2 1025.0 0
06:00 - 06:30 5.0 5.1 4.9 50 0.0 11.9 285 20.5 1025.2 0
06:30 - 07:00 5.3 5.6 4.9 49 0.0 15.1 305 24.1 1025.6 0
07:00 - 07:30 5.2 5.4 5.1 50 0.0 12.6 310 19.8 1025.9 8
07:30 - 08:00 5.7 5.9 5.3 48 0.0 5.8 211 16.2 1026.2 57
08:00 - 08:30 6.1 6.6 5.9 47 0.0 8.6 247 18.7 1026.1 89
08:30 - 09:00 6.7 7.1 6.3 45 0.0 13.3 297 33.5 1026.3 174
09:00 - 09:30 7.5 8.2 7.1 42 0.0 17.6 297 31.3 1026.6 274
09:30 - 10:00 9.0 9.8 8.3 35 0.0 16.9 296 35.6 1027.0 336
10:00 - 10:30 9.7 10.0 9.5 35 0.0 15.1 288 28.8 1027.0 386
10:30 - 11:00 10.9 11.9 10.0 33 0.0 10.1 294 25.9 1026.9 421
11:00 - 11:30 12.2 13.4 11.4 30 0.0 9.7 294 25.9 1026.6 443
11:30 - 12:00 11.8 12.1 11.3 32 0.0 14.0 303 25.9 1026.4 452
12:00 - 12:30 12.6 12.9 12.2 31 0.0 14.0 292 24.8 1026.0 444
12:30 - 13:00 12.4 12.5 12.3 31 0.0 15.1 297 26.6 1025.8 423
13:00 - 13:30 12.6 12.7 12.4 31 0.0 15.5 291 28.4 1025.6 390
13:30 - 14:00 12.7 12.9 12.4 32 0.0 13.3 283 26.3 1025.3 342
14:00 - 14:30 12.4 12.7 12.1 32 0.0 14.8 292 31.3 1025.3 280
14:30 - 15:00 12.3 12.4 12.2 31 0.0 14.8 293 32.8 1025.3 212
15:00 - 15:30 12.1 12.2 11.9 29 0.0 10.1 288 24.5 1025.5 138
15:30 - 16:00 11.4 11.9 10.8 30 0.0 6.5 264 16.9 1026.0 31
16:00 - 16:30 10.3 10.8 9.8 31 0.0 4.7 267 10.8 1026.2 5
16:30 - 17:00 10.0 10.3 9.6 30 0.0 4.7 259 13.0 1026.6 0
17:00 - 17:30 9.2 9.7 8.7 31 0.0 4.3 298 10.1 1026.8 0
17:30 - 18:00 8.9 9.2 8.5 31 0.0 5.0 296 13.3 1027.1 0
18:00 - 18:30 8.9 9.2 8.6 31 0.0 7.6 313 16.9 1027.4 0
18:30 - 19:00 8.9 9.2 8.5 33 0.0 8.6 312 16.6 1027.8 0
19:00 - 19:30 8.4 9.1 8.0 36 0.0 13.3 300 17.6 1028.1 0
19:30 - 20:00 9.0 9.4 8.4 34 0.0 9.7 314 16.6 1028.2 0
20:00 - 20:30 8.4 9.0 7.7 35 0.0 2.5 14 6.8 1028.5 0
20:30 - 21:00 8.3 8.9 7.7 36 0.0 4.3 329 10.1 1028.6 0
21:00 - 21:30 9.2 9.6 8.4 34 0.0 6.1 345 11.9 1028.5 0
21:30 - 22:00 8.2 9.3 7.1 38 0.0 5.0 310 10.1 1028.5 0
22:00 - 22:30 7.5 8.0 7.2 42 0.0 3.2 262 9.0 1028.7 0
22:30 - 23:00 7.8 8.1 7.4 43 0.0 4.0 126 9.4 1028.8 0

Les dades en taronja només han passat un control de qualitat automàtic. Resta pendent la seva validació definitiva.